sensor_id;sensor_type;location;lat;lon;timestamp;P1;durP1;ratioP1;P2;durP2;ratioP2
5456;SDS011;2751;49.802;9.944;2023-06-01T00:01:57;9.20;;;2.70;;
5456;SDS011;2751;49.802;9.944;2023-06-01T00:04:24;5.20;;;2.70;;
5456;SDS011;2751;49.802;9.944;2023-06-01T00:06:51;2.57;;;2.33;;
5456;SDS011;2751;49.802;9.944;2023-06-01T00:09:18;5.93;;;2.97;;
5456;SDS011;2751;49.802;9.944;2023-06-01T00:11:45;3.80;;;2.57;;
5456;SDS011;2751;49.802;9.944;2023-06-01T00:14:12;2.80;;;2.47;;
5456;SDS011;2751;49.802;9.944;2023-06-01T00:16:39;2.93;;;2.40;;
5456;SDS011;2751;49.802;9.944;2023-06-01T00:19:07;3.00;;;2.33;;
5456;SDS011;2751;49.802;9.944;2023-06-01T00:21:34;4.43;;;2.50;;
5456;SDS011;2751;49.802;9.944;2023-06-01T00:24:01;2.60;;;2.40;;
5456;SDS011;2751;49.802;9.944;2023-06-01T00:26:29;2.37;;;2.17;;
5456;SDS011;2751;49.802;9.944;2023-06-01T00:28:57;2.30;;;2.20;;
5456;SDS011;2751;49.802;9.944;2023-06-01T00:31:24;3.20;;;2.37;;
5456;SDS011;2751;49.802;9.944;2023-06-01T00:33:51;5.40;;;2.40;;
5456;SDS011;2751;49.802;9.944;2023-06-01T00:36:19;2.47;;;2.20;;
5456;SDS011;2751;49.802;9.944;2023-06-01T00:38:47;5.13;;;2.70;;
5456;SDS011;2751;49.802;9.944;2023-06-01T00:41:13;2.97;;;2.03;;
5456;SDS011;2751;49.802;9.944;2023-06-01T00:43:40;3.40;;;2.53;;
5456;SDS011;2751;49.802;9.944;2023-06-01T00:46:07;3.23;;;2.40;;
5456;SDS011;2751;49.802;9.944;2023-06-01T00:48:35;3.03;;;2.30;;
5456;SDS011;2751;49.802;9.944;2023-06-01T00:51:02;7.90;;;3.17;;
5456;SDS011;2751;49.802;9.944;2023-06-01T00:53:30;2.60;;;2.07;;
5456;SDS011;2751;49.802;9.944;2023-06-01T00:55:57;4.50;;;2.20;;
5456;SDS011;2751;49.802;9.944;2023-06-01T00:58:24;3.83;;;2.60;;
5456;SDS011;2751;49.802;9.944;2023-06-01T01:00:51;4.80;;;2.50;;
5456;SDS011;2751;49.802;9.944;2023-06-01T01:03:19;3.77;;;2.27;;
5456;SDS011;2751;49.802;9.944;2023-06-01T01:05:46;3.80;;;2.23;;
5456;SDS011;2751;49.802;9.944;2023-06-01T01:08:18;4.20;;;3.07;;
5456;SDS011;2751;49.802;9.944;2023-06-01T01:10:54;3.50;;;2.63;;
5456;SDS011;2751;49.802;9.944;2023-06-01T01:13:26;3.70;;;2.33;;
5456;SDS011;2751;49.802;9.944;2023-06-01T01:15:57;3.70;;;2.50;;
5456;SDS011;2751;49.802;9.944;2023-06-01T01:18:30;3.17;;;2.87;;
5456;SDS011;2751;49.802;9.944;2023-06-01T01:21:02;3.93;;;2.47;;
5456;SDS011;2751;49.802;9.944;2023-06-01T01:24:10;3.40;;;2.50;;
5456;SDS011;2751;49.802;9.944;2023-06-01T01:26:54;3.13;;;2.60;;
5456;SDS011;2751;49.802;9.944;2023-06-01T01:29:35;4.50;;;2.57;;
5456;SDS011;2751;49.802;9.944;2023-06-01T01:32:04;2.60;;;2.40;;
5456;SDS011;2751;49.802;9.944;2023-06-01T01:34:31;3.37;;;2.50;;
5456;SDS011;2751;49.802;9.944;2023-06-01T01:36:59;3.33;;;2.53;;
5456;SDS011;2751;49.802;9.944;2023-06-01T01:39:28;6.93;;;2.90;;
5456;SDS011;2751;49.802;9.944;2023-06-01T01:41:54;5.90;;;2.00;;
5456;SDS011;2751;49.802;9.944;2023-06-01T01:44:21;3.30;;;2.30;;
5456;SDS011;2751;49.802;9.944;2023-06-01T01:46:52;3.83;;;2.47;;
5456;SDS011;2751;49.802;9.944;2023-06-01T01:49:25;5.10;;;2.90;;
5456;SDS011;2751;49.802;9.944;2023-06-01T01:51:56;3.57;;;2.30;;
5456;SDS011;2751;49.802;9.944;2023-06-01T01:54:29;4.47;;;2.53;;
5456;SDS011;2751;49.802;9.944;2023-06-01T01:56:58;6.43;;;2.30;;
5456;SDS011;2751;49.802;9.944;2023-06-01T01:59:27;4.80;;;2.13;;
5456;SDS011;2751;49.802;9.944;2023-06-01T02:01:56;8.03;;;2.70;;
5456;SDS011;2751;49.802;9.944;2023-06-01T02:04:23;3.47;;;2.70;;
5456;SDS011;2751;49.802;9.944;2023-06-01T02:06:51;2.97;;;2.47;;
5456;SDS011;2751;49.802;9.944;2023-06-01T02:09:18;5.83;;;2.60;;
5456;SDS011;2751;49.802;9.944;2023-06-01T02:11:44;2.63;;;2.43;;
5456;SDS011;2751;49.802;9.944;2023-06-01T02:14:11;3.17;;;2.43;;
5456;SDS011;2751;49.802;9.944;2023-06-01T02:16:38;3.67;;;2.10;;
5456;SDS011;2751;49.802;9.944;2023-06-01T02:19:06;3.90;;;2.70;;
5456;SDS011;2751;49.802;9.944;2023-06-01T02:21:36;4.00;;;2.80;;
5456;SDS011;2751;49.802;9.944;2023-06-01T02:24:03;4.87;;;2.40;;
5456;SDS011;2751;49.802;9.944;2023-06-01T02:26:32;3.13;;;2.60;;
5456;SDS011;2751;49.802;9.944;2023-06-01T02:28:59;5.90;;;2.43;;
5456;SDS011;2751;49.802;9.944;2023-06-01T02:31:27;5.30;;;2.60;;
5456;SDS011;2751;49.802;9.944;2023-06-01T02:33:54;5.07;;;2.80;;
5456;SDS011;2751;49.802;9.944;2023-06-01T02:36:22;2.60;;;2.20;;
5456;SDS011;2751;49.802;9.944;2023-06-01T02:38:50;4.03;;;3.40;;
5456;SDS011;2751;49.802;9.944;2023-06-01T02:41:17;5.23;;;3.20;;
5456;SDS011;2751;49.802;9.944;2023-06-01T02:43:44;6.73;;;2.90;;
5456;SDS011;2751;49.802;9.944;2023-06-01T02:46:10;3.27;;;2.43;;
5456;SDS011;2751;49.802;9.944;2023-06-01T02:48:37;2.97;;;2.50;;
5456;SDS011;2751;49.802;9.944;2023-06-01T02:51:04;5.80;;;2.43;;
5456;SDS011;2751;49.802;9.944;2023-06-01T02:53:32;4.90;;;2.63;;
5456;SDS011;2751;49.802;9.944;2023-06-01T02:56:01;4.50;;;2.67;;
5456;SDS011;2751;49.802;9.944;2023-06-01T02:58:27;3.33;;;2.50;;
5456;SDS011;2751;49.802;9.944;2023-06-01T03:00:55;3.63;;;2.80;;
5456;SDS011;2751;49.802;9.944;2023-06-01T03:03:23;3.53;;;2.80;;
5456;SDS011;2751;49.802;9.944;2023-06-01T03:05:50;4.47;;;2.77;;
5456;SDS011;2751;49.802;9.944;2023-06-01T03:08:17;4.70;;;2.60;;
5456;SDS011;2751;49.802;9.944;2023-06-01T03:10:45;7.57;;;2.60;;
5456;SDS011;2751;49.802;9.944;2023-06-01T03:13:12;4.13;;;3.00;;
5456;SDS011;2751;49.802;9.944;2023-06-01T03:15:39;4.60;;;2.53;;
5456;SDS011;2751;49.802;9.944;2023-06-01T03:18:06;4.97;;;2.60;;
5456;SDS011;2751;49.802;9.944;2023-06-01T03:20:34;3.33;;;2.60;;
5456;SDS011;2751;49.802;9.944;2023-06-01T03:23:01;5.33;;;2.70;;
5456;SDS011;2751;49.802;9.944;2023-06-01T03:25:28;5.30;;;3.00;;
5456;SDS011;2751;49.802;9.944;2023-06-01T03:27:56;4.47;;;3.27;;
5456;SDS011;2751;49.802;9.944;2023-06-01T03:30:23;3.13;;;2.80;;
5456;SDS011;2751;49.802;9.944;2023-06-01T03:32:50;3.23;;;2.83;;
5456;SDS011;2751;49.802;9.944;2023-06-01T03:35:17;3.30;;;2.93;;
5456;SDS011;2751;49.802;9.944;2023-06-01T03:37:44;3.60;;;2.63;;
5456;SDS011;2751;49.802;9.944;2023-06-01T03:40:11;2.93;;;2.63;;
5456;SDS011;2751;49.802;9.944;2023-06-01T03:42:39;3.40;;;2.30;;
5456;SDS011;2751;49.802;9.944;2023-06-01T03:45:09;4.27;;;2.43;;
5456;SDS011;2751;49.802;9.944;2023-06-01T03:47:37;4.23;;;2.90;;
5456;SDS011;2751;49.802;9.944;2023-06-01T03:50:06;5.90;;;3.00;;
5456;SDS011;2751;49.802;9.944;2023-06-01T03:52:34;2.83;;;2.50;;
5456;SDS011;2751;49.802;9.944;2023-06-01T03:55:02;3.00;;;2.63;;
5456;SDS011;2751;49.802;9.944;2023-06-01T03:57:33;3.90;;;3.27;;
5456;SDS011;2751;49.802;9.944;2023-06-01T04:00:00;4.20;;;2.93;;
5456;SDS011;2751;49.802;9.944;2023-06-01T04:02:45;4.10;;;3.00;;
5456;SDS011;2751;49.802;9.944;2023-06-01T04:05:14;4.80;;;2.80;;
5456;SDS011;2751;49.802;9.944;2023-06-01T04:07:42;4.80;;;3.10;;
5456;SDS011;2751;49.802;9.944;2023-06-01T04:10:10;3.40;;;2.93;;
5456;SDS011;2751;49.802;9.944;2023-06-01T04:12:39;6.00;;;3.03;;
5456;SDS011;2751;49.802;9.944;2023-06-01T04:15:07;2.90;;;2.70;;
5456;SDS011;2751;49.802;9.944;2023-06-01T04:17:35;4.27;;;2.90;;
5456;SDS011;2751;49.802;9.944;2023-06-01T04:20:05;5.63;;;2.90;;
5456;SDS011;2751;49.802;9.944;2023-06-01T04:22:34;6.33;;;3.17;;
5456;SDS011;2751;49.802;9.944;2023-06-01T04:25:01;4.90;;;3.30;;
5456;SDS011;2751;49.802;9.944;2023-06-01T04:27:28;7.70;;;3.50;;
5456;SDS011;2751;49.802;9.944;2023-06-01T04:29:55;9.37;;;3.10;;
5456;SDS011;2751;49.802;9.944;2023-06-01T04:32:23;8.33;;;3.53;;
5456;SDS011;2751;49.802;9.944;2023-06-01T04:34:51;6.43;;;3.33;;
5456;SDS011;2751;49.802;9.944;2023-06-01T04:37:25;5.53;;;2.70;;
5456;SDS011;2751;49.802;9.944;2023-06-01T04:39:53;6.07;;;3.20;;
5456;SDS011;2751;49.802;9.944;2023-06-01T04:42:21;8.93;;;3.43;;
5456;SDS011;2751;49.802;9.944;2023-06-01T04:44:48;7.33;;;3.43;;
5456;SDS011;2751;49.802;9.944;2023-06-01T04:47:16;5.53;;;3.80;;
5456;SDS011;2751;49.802;9.944;2023-06-01T04:49:46;11.97;;;3.50;;
5456;SDS011;2751;49.802;9.944;2023-06-01T04:52:13;7.17;;;3.60;;
5456;SDS011;2751;49.802;9.944;2023-06-01T04:54:41;4.27;;;3.30;;
5456;SDS011;2751;49.802;9.944;2023-06-01T04:57:09;10.43;;;3.40;;
5456;SDS011;2751;49.802;9.944;2023-06-01T04:59:35;10.80;;;4.00;;
5456;SDS011;2751;49.802;9.944;2023-06-01T05:02:02;8.30;;;3.27;;
5456;SDS011;2751;49.802;9.944;2023-06-01T05:04:30;8.00;;;3.97;;
5456;SDS011;2751;49.802;9.944;2023-06-01T05:06:56;10.50;;;4.20;;
5456;SDS011;2751;49.802;9.944;2023-06-01T05:09:23;6.27;;;3.70;;
5456;SDS011;2751;49.802;9.944;2023-06-01T05:11:52;8.83;;;3.67;;
5456;SDS011;2751;49.802;9.944;2023-06-01T05:14:18;5.07;;;3.33;;
5456;SDS011;2751;49.802;9.944;2023-06-01T05:16:46;7.60;;;4.00;;
5456;SDS011;2751;49.802;9.944;2023-06-01T05:19:13;8.27;;;3.00;;
5456;SDS011;2751;49.802;9.944;2023-06-01T05:21:41;6.70;;;3.40;;
5456;SDS011;2751;49.802;9.944;2023-06-01T05:24:08;2.90;;;2.70;;
5456;SDS011;2751;49.802;9.944;2023-06-01T05:26:35;7.83;;;3.17;;
5456;SDS011;2751;49.802;9.944;2023-06-01T05:29:03;3.93;;;3.00;;
5456;SDS011;2751;49.802;9.944;2023-06-01T05:31:30;7.27;;;3.23;;
5456;SDS011;2751;49.802;9.944;2023-06-01T05:33:57;7.13;;;3.97;;
5456;SDS011;2751;49.802;9.944;2023-06-01T05:36:24;5.63;;;2.77;;
5456;SDS011;2751;49.802;9.944;2023-06-01T05:38:50;6.80;;;3.20;;
5456;SDS011;2751;49.802;9.944;2023-06-01T05:41:17;6.40;;;3.00;;
5456;SDS011;2751;49.802;9.944;2023-06-01T05:43:44;4.50;;;3.00;;
5456;SDS011;2751;49.802;9.944;2023-06-01T05:46:12;3.73;;;2.73;;
5456;SDS011;2751;49.802;9.944;2023-06-01T05:48:39;6.40;;;2.90;;
5456;SDS011;2751;49.802;9.944;2023-06-01T05:51:06;6.97;;;2.67;;
5456;SDS011;2751;49.802;9.944;2023-06-01T05:53:33;3.87;;;2.93;;
5456;SDS011;2751;49.802;9.944;2023-06-01T05:56:00;8.73;;;2.57;;
5456;SDS011;2751;49.802;9.944;2023-06-01T05:58:27;6.23;;;3.07;;
5456;SDS011;2751;49.802;9.944;2023-06-01T06:00:54;6.30;;;3.10;;
5456;SDS011;2751;49.802;9.944;2023-06-01T06:03:22;4.63;;;3.27;;
5456;SDS011;2751;49.802;9.944;2023-06-01T06:05:50;6.70;;;3.30;;
5456;SDS011;2751;49.802;9.944;2023-06-01T06:08:16;6.83;;;3.07;;
5456;SDS011;2751;49.802;9.944;2023-06-01T06:10:43;11.63;;;3.40;;
5456;SDS011;2751;49.802;9.944;2023-06-01T06:13:10;6.73;;;3.20;;
5456;SDS011;2751;49.802;9.944;2023-06-01T06:15:37;7.10;;;2.80;;
5456;SDS011;2751;49.802;9.944;2023-06-01T06:18:04;4.80;;;2.43;;
5456;SDS011;2751;49.802;9.944;2023-06-01T06:20:32;7.83;;;3.30;;
5456;SDS011;2751;49.802;9.944;2023-06-01T06:22:59;6.17;;;3.00;;
5456;SDS011;2751;49.802;9.944;2023-06-01T06:25:26;3.40;;;2.53;;
5456;SDS011;2751;49.802;9.944;2023-06-01T06:27:53;9.93;;;3.03;;
5456;SDS011;2751;49.802;9.944;2023-06-01T06:30:20;6.00;;;2.77;;
5456;SDS011;2751;49.802;9.944;2023-06-01T06:32:49;5.10;;;2.60;;
5456;SDS011;2751;49.802;9.944;2023-06-01T06:35:16;3.53;;;2.80;;
5456;SDS011;2751;49.802;9.944;2023-06-01T06:37:44;3.33;;;3.03;;
5456;SDS011;2751;49.802;9.944;2023-06-01T06:40:11;7.83;;;2.70;;
5456;SDS011;2751;49.802;9.944;2023-06-01T06:42:39;5.30;;;3.07;;
5456;SDS011;2751;49.802;9.944;2023-06-01T06:45:07;6.23;;;2.70;;
5456;SDS011;2751;49.802;9.944;2023-06-01T06:47:34;6.07;;;2.70;;
5456;SDS011;2751;49.802;9.944;2023-06-01T06:50:01;5.77;;;2.80;;
5456;SDS011;2751;49.802;9.944;2023-06-01T06:52:28;7.20;;;3.13;;
5456;SDS011;2751;49.802;9.944;2023-06-01T06:54:56;16.90;;;2.33;;
5456;SDS011;2751;49.802;9.944;2023-06-01T06:57:23;8.30;;;2.70;;
5456;SDS011;2751;49.802;9.944;2023-06-01T06:59:50;6.87;;;3.63;;
5456;SDS011;2751;49.802;9.944;2023-06-01T07:02:17;5.17;;;2.20;;
5456;SDS011;2751;49.802;9.944;2023-06-01T07:04:44;11.10;;;3.10;;
5456;SDS011;2751;49.802;9.944;2023-06-01T07:07:11;3.97;;;3.03;;
5456;SDS011;2751;49.802;9.944;2023-06-01T07:09:38;2.53;;;2.33;;
5456;SDS011;2751;49.802;9.944;2023-06-01T07:12:07;5.20;;;2.43;;
5456;SDS011;2751;49.802;9.944;2023-06-01T07:14:34;2.30;;;2.07;;
5456;SDS011;2751;49.802;9.944;2023-06-01T07:17:01;2.73;;;2.23;;
5456;SDS011;2751;49.802;9.944;2023-06-01T07:19:28;3.43;;;2.43;;
5456;SDS011;2751;49.802;9.944;2023-06-01T07:21:58;2.30;;;1.83;;
5456;SDS011;2751;49.802;9.944;2023-06-01T07:24:26;2.17;;;2.07;;
5456;SDS011;2751;49.802;9.944;2023-06-01T07:26:53;2.73;;;2.20;;
5456;SDS011;2751;49.802;9.944;2023-06-01T07:29:22;2.13;;;2.03;;
5456;SDS011;2751;49.802;9.944;2023-06-01T07:31:49;2.57;;;2.37;;
5456;SDS011;2751;49.802;9.944;2023-06-01T07:34:17;4.90;;;3.13;;
5456;SDS011;2751;49.802;9.944;2023-06-01T07:36:45;2.50;;;2.30;;
5456;SDS011;2751;49.802;9.944;2023-06-01T07:39:12;2.63;;;1.97;;
5456;SDS011;2751;49.802;9.944;2023-06-01T07:41:40;2.03;;;1.93;;
5456;SDS011;2751;49.802;9.944;2023-06-01T07:44:07;2.50;;;2.30;;
5456;SDS011;2751;49.802;9.944;2023-06-01T07:46:36;5.23;;;2.27;;
5456;SDS011;2751;49.802;9.944;2023-06-01T07:49:02;6.40;;;3.10;;
5456;SDS011;2751;49.802;9.944;2023-06-01T07:51:29;7.63;;;2.50;;
5456;SDS011;2751;49.802;9.944;2023-06-01T07:53:57;5.10;;;2.70;;
5456;SDS011;2751;49.802;9.944;2023-06-01T07:56:25;11.40;;;2.73;;
5456;SDS011;2751;49.802;9.944;2023-06-01T07:58:53;3.63;;;2.30;;
5456;SDS011;2751;49.802;9.944;2023-06-01T08:01:20;2.70;;;2.30;;
5456;SDS011;2751;49.802;9.944;2023-06-01T08:03:48;5.33;;;3.40;;
5456;SDS011;2751;49.802;9.944;2023-06-01T08:06:16;5.47;;;2.77;;
5456;SDS011;2751;49.802;9.944;2023-06-01T08:08:43;3.80;;;2.63;;
5456;SDS011;2751;49.802;9.944;2023-06-01T08:11:11;2.70;;;2.50;;
5456;SDS011;2751;49.802;9.944;2023-06-01T08:13:37;3.17;;;2.20;;
5456;SDS011;2751;49.802;9.944;2023-06-01T08:16:06;5.03;;;3.50;;
5456;SDS011;2751;49.802;9.944;2023-06-01T08:18:33;6.07;;;2.90;;
5456;SDS011;2751;49.802;9.944;2023-06-01T08:21:02;3.10;;;2.60;;
5456;SDS011;2751;49.802;9.944;2023-06-01T08:23:30;2.17;;;1.90;;
5456;SDS011;2751;49.802;9.944;2023-06-01T08:25:57;7.33;;;2.80;;
5456;SDS011;2751;49.802;9.944;2023-06-01T08:28:24;2.63;;;2.00;;
5456;SDS011;2751;49.802;9.944;2023-06-01T08:30:51;2.70;;;2.50;;
5456;SDS011;2751;49.802;9.944;2023-06-01T08:33:18;2.20;;;1.87;;
5456;SDS011;2751;49.802;9.944;2023-06-01T08:35:45;2.60;;;2.40;;
5456;SDS011;2751;49.802;9.944;2023-06-01T08:38:13;4.93;;;2.20;;
5456;SDS011;2751;49.802;9.944;2023-06-01T08:40:40;3.43;;;2.10;;
5456;SDS011;2751;49.802;9.944;2023-06-01T08:43:09;5.80;;;3.70;;
5456;SDS011;2751;49.802;9.944;2023-06-01T08:45:43;3.00;;;2.20;;
5456;SDS011;2751;49.802;9.944;2023-06-01T08:48:13;5.30;;;2.63;;
5456;SDS011;2751;49.802;9.944;2023-06-01T08:50:41;5.70;;;2.70;;
5456;SDS011;2751;49.802;9.944;2023-06-01T08:53:09;9.63;;;4.80;;
5456;SDS011;2751;49.802;9.944;2023-06-01T08:55:38;4.13;;;2.40;;
5456;SDS011;2751;49.802;9.944;2023-06-01T08:58:05;3.27;;;1.80;;
5456;SDS011;2751;49.802;9.944;2023-06-01T09:00:33;8.43;;;2.10;;
5456;SDS011;2751;49.802;9.944;2023-06-01T09:03:01;2.33;;;1.90;;
5456;SDS011;2751;49.802;9.944;2023-06-01T09:05:29;2.00;;;1.73;;
5456;SDS011;2751;49.802;9.944;2023-06-01T09:07:56;5.40;;;2.20;;
5456;SDS011;2751;49.802;9.944;2023-06-01T09:10:23;2.70;;;2.10;;
5456;SDS011;2751;49.802;9.944;2023-06-01T09:12:53;3.47;;;2.13;;
5456;SDS011;2751;49.802;9.944;2023-06-01T09:15:20;6.70;;;1.70;;
5456;SDS011;2751;49.802;9.944;2023-06-01T09:17:49;2.67;;;1.80;;
5456;SDS011;2751;49.802;9.944;2023-06-01T09:20:22;2.00;;;1.77;;
5456;SDS011;2751;49.802;9.944;2023-06-01T09:22:50;5.93;;;2.40;;
5456;SDS011;2751;49.802;9.944;2023-06-01T09:25:23;3.47;;;2.17;;
5456;SDS011;2751;49.802;9.944;2023-06-01T09:27:53;4.07;;;1.70;;
5456;SDS011;2751;49.802;9.944;2023-06-01T09:30:21;1.90;;;1.80;;
5456;SDS011;2751;49.802;9.944;2023-06-01T09:32:50;2.57;;;1.87;;
5456;SDS011;2751;49.802;9.944;2023-06-01T09:38:08;2.00;;;1.80;;
5456;SDS011;2751;49.802;9.944;2023-06-01T09:40:36;2.23;;;1.53;;
5456;SDS011;2751;49.802;9.944;2023-06-01T09:43:19;2.13;;;1.83;;
5456;SDS011;2751;49.802;9.944;2023-06-01T09:45:49;1.93;;;1.80;;
5456;SDS011;2751;49.802;9.944;2023-06-01T09:48:30;2.00;;;1.70;;
5456;SDS011;2751;49.802;9.944;2023-06-01T09:50:57;2.07;;;1.70;;
5456;SDS011;2751;49.802;9.944;2023-06-01T09:53:24;1.77;;;1.67;;
5456;SDS011;2751;49.802;9.944;2023-06-01T09:55:58;1.90;;;1.40;;
5456;SDS011;2751;49.802;9.944;2023-06-01T09:58:27;5.40;;;1.80;;
5456;SDS011;2751;49.802;9.944;2023-06-01T10:00:54;3.87;;;2.10;;
5456;SDS011;2751;49.802;9.944;2023-06-01T10:03:23;2.40;;;1.90;;
5456;SDS011;2751;49.802;9.944;2023-06-01T10:05:52;2.73;;;1.63;;
5456;SDS011;2751;49.802;9.944;2023-06-01T10:08:20;2.50;;;1.80;;
5456;SDS011;2751;49.802;9.944;2023-06-01T10:10:47;3.40;;;1.57;;
5456;SDS011;2751;49.802;9.944;2023-06-01T10:13:15;2.93;;;2.70;;
5456;SDS011;2751;49.802;9.944;2023-06-01T10:15:43;1.63;;;1.53;;
5456;SDS011;2751;49.802;9.944;2023-06-01T10:18:11;5.17;;;2.10;;
5456;SDS011;2751;49.802;9.944;2023-06-01T10:20:37;2.90;;;2.70;;
5456;SDS011;2751;49.802;9.944;2023-06-01T10:23:05;2.60;;;1.73;;
5456;SDS011;2751;49.802;9.944;2023-06-01T10:25:35;1.50;;;1.40;;
5456;SDS011;2751;49.802;9.944;2023-06-01T10:28:08;3.83;;;2.03;;
5456;SDS011;2751;49.802;9.944;2023-06-01T10:30:36;2.33;;;1.50;;
5456;SDS011;2751;49.802;9.944;2023-06-01T10:33:05;2.50;;;1.70;;
5456;SDS011;2751;49.802;9.944;2023-06-01T10:35:51;1.80;;;1.37;;
5456;SDS011;2751;49.802;9.944;2023-06-01T10:38:22;2.20;;;1.53;;
5456;SDS011;2751;49.802;9.944;2023-06-01T10:40:52;2.10;;;1.70;;
5456;SDS011;2751;49.802;9.944;2023-06-01T10:43:39;2.43;;;1.60;;
5456;SDS011;2751;49.802;9.944;2023-06-01T10:49:03;2.00;;;1.80;;
5456;SDS011;2751;49.802;9.944;2023-06-01T10:51:31;4.37;;;1.73;;
5456;SDS011;2751;49.802;9.944;2023-06-01T10:57:22;4.00;;;1.70;;
5456;SDS011;2751;49.802;9.944;2023-06-01T11:00:10;2.60;;;1.67;;
5456;SDS011;2751;49.802;9.944;2023-06-01T11:02:46;2.27;;;1.70;;
5456;SDS011;2751;49.802;9.944;2023-06-01T11:05:41;4.13;;;3.50;;
5456;SDS011;2751;49.802;9.944;2023-06-01T11:14:28;2.13;;;1.37;;
5456;SDS011;2751;49.802;9.944;2023-06-01T11:20:01;1.90;;;1.73;;
5456;SDS011;2751;49.802;9.944;2023-06-01T11:22:37;1.73;;;1.50;;
5456;SDS011;2751;49.802;9.944;2023-06-01T11:25:05;4.00;;;1.57;;
5456;SDS011;2751;49.802;9.944;2023-06-01T11:27:34;1.90;;;1.40;;
5456;SDS011;2751;49.802;9.944;2023-06-01T11:30:04;1.73;;;1.63;;
5456;SDS011;2751;49.802;9.944;2023-06-01T11:32:32;2.50;;;1.80;;
5456;SDS011;2751;49.802;9.944;2023-06-01T11:35:18;2.10;;;1.30;;
5456;SDS011;2751;49.802;9.944;2023-06-01T11:37:53;3.50;;;1.93;;
5456;SDS011;2751;49.802;9.944;2023-06-01T11:40:21;1.70;;;1.40;;
5456;SDS011;2751;49.802;9.944;2023-06-01T11:42:48;2.40;;;1.53;;
5456;SDS011;2751;49.802;9.944;2023-06-01T11:45:15;3.13;;;1.80;;
5456;SDS011;2751;49.802;9.944;2023-06-01T11:47:43;4.00;;;2.87;;
5456;SDS011;2751;49.802;9.944;2023-06-01T11:50:19;2.20;;;2.10;;
5456;SDS011;2751;49.802;9.944;2023-06-01T11:52:49;2.63;;;1.50;;
5456;SDS011;2751;49.802;9.944;2023-06-01T11:55:18;4.03;;;1.73;;
5456;SDS011;2751;49.802;9.944;2023-06-01T11:57:45;1.93;;;1.60;;
5456;SDS011;2751;49.802;9.944;2023-06-01T12:00:12;3.53;;;1.53;;
5456;SDS011;2751;49.802;9.944;2023-06-01T12:02:39;1.93;;;1.40;;
5456;SDS011;2751;49.802;9.944;2023-06-01T12:05:08;2.53;;;1.63;;
5456;SDS011;2751;49.802;9.944;2023-06-01T12:07:42;1.70;;;1.60;;
5456;SDS011;2751;49.802;9.944;2023-06-01T12:10:10;2.13;;;1.33;;
5456;SDS011;2751;49.802;9.944;2023-06-01T12:12:40;1.70;;;1.60;;
5456;SDS011;2751;49.802;9.944;2023-06-01T12:15:08;5.13;;;1.50;;
5456;SDS011;2751;49.802;9.944;2023-06-01T12:17:45;3.83;;;1.50;;
5456;SDS011;2751;49.802;9.944;2023-06-01T12:20:25;1.30;;;1.30;;
5456;SDS011;2751;49.802;9.944;2023-06-01T12:22:52;5.53;;;1.70;;
5456;SDS011;2751;49.802;9.944;2023-06-01T12:25:20;1.90;;;1.70;;
5456;SDS011;2751;49.802;9.944;2023-06-01T12:28:00;1.63;;;1.53;;
5456;SDS011;2751;49.802;9.944;2023-06-01T12:30:27;2.63;;;1.50;;
5456;SDS011;2751;49.802;9.944;2023-06-01T12:32:54;3.17;;;1.70;;
5456;SDS011;2751;49.802;9.944;2023-06-01T12:35:21;2.00;;;1.67;;
5456;SDS011;2751;49.802;9.944;2023-06-01T12:38:01;6.87;;;6.20;;
5456;SDS011;2751;49.802;9.944;2023-06-01T12:40:29;3.33;;;1.60;;
5456;SDS011;2751;49.802;9.944;2023-06-01T12:42:56;2.10;;;1.97;;
5456;SDS011;2751;49.802;9.944;2023-06-01T12:45:24;2.40;;;1.90;;
5456;SDS011;2751;49.802;9.944;2023-06-01T12:47:51;1.77;;;1.60;;
5456;SDS011;2751;49.802;9.944;2023-06-01T12:50:18;2.50;;;1.83;;
5456;SDS011;2751;49.802;9.944;2023-06-01T12:52:45;2.57;;;2.07;;
5456;SDS011;2751;49.802;9.944;2023-06-01T12:55:12;1.80;;;1.70;;
5456;SDS011;2751;49.802;9.944;2023-06-01T12:57:39;1.30;;;1.20;;
5456;SDS011;2751;49.802;9.944;2023-06-01T13:00:08;3.03;;;1.40;;
5456;SDS011;2751;49.802;9.944;2023-06-01T13:02:38;1.77;;;1.50;;
5456;SDS011;2751;49.802;9.944;2023-06-01T13:05:05;1.60;;;1.60;;
5456;SDS011;2751;49.802;9.944;2023-06-01T13:07:32;2.37;;;1.80;;
5456;SDS011;2751;49.802;9.944;2023-06-01T13:09:59;2.27;;;1.27;;
5456;SDS011;2751;49.802;9.944;2023-06-01T13:12:26;4.73;;;1.60;;
5456;SDS011;2751;49.802;9.944;2023-06-01T13:14:53;1.67;;;1.57;;
5456;SDS011;2751;49.802;9.944;2023-06-01T13:17:20;1.73;;;1.60;;
5456;SDS011;2751;49.802;9.944;2023-06-01T13:19:49;2.00;;;1.33;;
5456;SDS011;2751;49.802;9.944;2023-06-01T13:22:16;1.70;;;1.60;;
5456;SDS011;2751;49.802;9.944;2023-06-01T13:24:42;2.93;;;1.40;;
5456;SDS011;2751;49.802;9.944;2023-06-01T13:27:09;1.47;;;1.47;;
5456;SDS011;2751;49.802;9.944;2023-06-01T13:29:36;2.60;;;1.60;;
5456;SDS011;2751;49.802;9.944;2023-06-01T13:32:03;2.50;;;1.90;;
5456;SDS011;2751;49.802;9.944;2023-06-01T13:34:31;4.80;;;1.50;;
5456;SDS011;2751;49.802;9.944;2023-06-01T13:36:59;1.67;;;1.50;;
5456;SDS011;2751;49.802;9.944;2023-06-01T13:39:26;3.60;;;1.60;;
5456;SDS011;2751;49.802;9.944;2023-06-01T13:41:53;1.43;;;1.40;;
5456;SDS011;2751;49.802;9.944;2023-06-01T13:44:20;2.00;;;1.50;;
5456;SDS011;2751;49.802;9.944;2023-06-01T13:46:47;3.40;;;1.77;;
5456;SDS011;2751;49.802;9.944;2023-06-01T13:49:14;2.53;;;1.47;;
5456;SDS011;2751;49.802;9.944;2023-06-01T13:51:41;1.67;;;1.57;;
5456;SDS011;2751;49.802;9.944;2023-06-01T13:54:10;1.60;;;1.50;;
5456;SDS011;2751;49.802;9.944;2023-06-01T13:56:38;1.50;;;1.10;;
5456;SDS011;2751;49.802;9.944;2023-06-01T13:59:04;2.63;;;1.77;;
5456;SDS011;2751;49.802;9.944;2023-06-01T14:01:32;1.80;;;1.70;;
5456;SDS011;2751;49.802;9.944;2023-06-01T14:04:00;3.73;;;2.20;;
5456;SDS011;2751;49.802;9.944;2023-06-01T14:06:28;2.60;;;1.70;;
5456;SDS011;2751;49.802;9.944;2023-06-01T14:08:55;4.93;;;1.93;;
5456;SDS011;2751;49.802;9.944;2023-06-01T14:11:23;1.67;;;1.57;;
5456;SDS011;2751;49.802;9.944;2023-06-01T14:13:50;1.87;;;1.37;;
5456;SDS011;2751;49.802;9.944;2023-06-01T14:16:17;1.83;;;1.40;;
5456;SDS011;2751;49.802;9.944;2023-06-01T14:18:44;2.27;;;1.57;;
5456;SDS011;2751;49.802;9.944;2023-06-01T14:21:11;2.23;;;1.60;;
5456;SDS011;2751;49.802;9.944;2023-06-01T14:23:38;4.30;;;2.67;;
5456;SDS011;2751;49.802;9.944;2023-06-01T14:26:06;1.80;;;1.50;;
5456;SDS011;2751;49.802;9.944;2023-06-01T14:28:34;1.47;;;1.47;;
5456;SDS011;2751;49.802;9.944;2023-06-01T14:31:01;4.40;;;1.83;;
5456;SDS011;2751;49.802;9.944;2023-06-01T14:33:28;2.00;;;1.90;;
5456;SDS011;2751;49.802;9.944;2023-06-01T14:35:55;2.17;;;1.97;;
5456;SDS011;2751;49.802;9.944;2023-06-01T14:38:22;2.10;;;1.57;;
5456;SDS011;2751;49.802;9.944;2023-06-01T14:40:49;2.53;;;1.60;;
5456;SDS011;2751;49.802;9.944;2023-06-01T14:43:17;2.90;;;1.70;;
5456;SDS011;2751;49.802;9.944;2023-06-01T14:45:45;5.60;;;1.50;;
5456;SDS011;2751;49.802;9.944;2023-06-01T14:48:12;1.67;;;1.57;;
5456;SDS011;2751;49.802;9.944;2023-06-01T14:50:39;2.30;;;1.73;;
5456;SDS011;2751;49.802;9.944;2023-06-01T14:53:06;3.17;;;1.80;;
5456;SDS011;2751;49.802;9.944;2023-06-01T14:55:32;1.67;;;1.57;;
5456;SDS011;2751;49.802;9.944;2023-06-01T14:57:59;4.60;;;1.83;;
5456;SDS011;2751;49.802;9.944;2023-06-01T15:00:27;1.70;;;1.60;;
5456;SDS011;2751;49.802;9.944;2023-06-01T15:02:55;1.60;;;1.50;;
5456;SDS011;2751;49.802;9.944;2023-06-01T15:05:22;1.87;;;1.50;;
5456;SDS011;2751;49.802;9.944;2023-06-01T15:07:49;3.20;;;1.70;;
5456;SDS011;2751;49.802;9.944;2023-06-01T15:10:16;1.40;;;1.30;;
5456;SDS011;2751;49.802;9.944;2023-06-01T15:12:43;4.40;;;2.57;;
5456;SDS011;2751;49.802;9.944;2023-06-01T15:15:10;2.20;;;1.53;;
5456;SDS011;2751;49.802;9.944;2023-06-01T15:17:37;1.93;;;1.40;;
5456;SDS011;2751;49.802;9.944;2023-06-01T15:20:07;1.70;;;1.37;;
5456;SDS011;2751;49.802;9.944;2023-06-01T15:22:34;3.77;;;1.93;;
5456;SDS011;2751;49.802;9.944;2023-06-01T15:25:01;2.10;;;2.00;;
5456;SDS011;2751;49.802;9.944;2023-06-01T15:27:27;1.70;;;1.60;;
5456;SDS011;2751;49.802;9.944;2023-06-01T15:29:54;10.53;;;2.73;;
5456;SDS011;2751;49.802;9.944;2023-06-01T15:32:21;1.67;;;1.57;;
5456;SDS011;2751;49.802;9.944;2023-06-01T15:34:48;1.97;;;1.77;;
5456;SDS011;2751;49.802;9.944;2023-06-01T15:37:16;1.60;;;1.60;;
5456;SDS011;2751;49.802;9.944;2023-06-01T15:39:44;2.07;;;1.37;;
5456;SDS011;2751;49.802;9.944;2023-06-01T15:42:11;2.93;;;1.57;;